»·PEaware :: HAG11K W09-KPUW

HAG11K :: W09-KPUW

FLIGHT INFORMATION

Flight Status: Arrived
Operator: Unknown
More flights by this operator :: More flights under this callsign
Pilot: Alex K. (14822)
Aircraft: PIPER PA-31/31P NAVAJO CHIEFTAIN
(PA31)
More flights by this aircraft type
Origin: W09 Lower Monumental State
United States
Destination: KPUW Pullman/Moscow Regl
United States
More flights between these airports :: More routes between these airports
Route:
File this flight plan on PilotEdge
Remarks: Callsign "Hageland", Hageland Aviation Services (AK)
Altitude:
(Current/Filed)
5,500ft
Speed:
(Current/Filed)
190kts
Departed: 27-Mar-18 12:37 PM
Arrived: 27-Mar-18 12:59 PM
Distance/Time
Traveled:
135nm/0:22
Distance/Time
To Go:
Arrived

Flight Plot

Page will automatically refresh every two minutes.

Flight plan parsing failed; only flown route is shown


Map Options




Map Legend


Flown Route
Filed Route
Departure Airport
Arrival Airport
Navaid (VOR, NDB)
Fix

Horizontal Profiles

Position Reports

Time Latitude Longitude Heading Altitude Ground
Speed
27-Mar-18 11:41 46.546154 -118.540042 110 816ft 0kts
27-Mar-18 11:42 46.546154 -118.540042 110 816ft 0kts
27-Mar-18 11:43 46.546154 -118.540042 110 816ft 0kts
27-Mar-18 11:44 46.546154 -118.540042 110 816ft 0kts
27-Mar-18 11:45 46.546154 -118.540042 110 816ft 0kts
27-Mar-18 11:46 46.546154 -118.540042 110 816ft 0kts
27-Mar-18 11:47 46.546154 -118.540042 110 816ft 0kts
27-Mar-18 11:48 46.546154 -118.540042 110 816ft 0kts
27-Mar-18 11:49 46.546154 -118.540042 110 816ft 0kts
27-Mar-18 11:50 46.546154 -118.540042 110 816ft 0kts
27-Mar-18 11:51 46.546154 -118.540042 110 816ft 0kts
27-Mar-18 11:52 46.546154 -118.540042 110 816ft 0kts
27-Mar-18 11:53 46.546154 -118.540042 110 816ft 0kts
27-Mar-18 11:54 46.546154 -118.540042 110 816ft 0kts
27-Mar-18 11:55 46.546154 -118.540042 110 816ft 0kts
27-Mar-18 11:56 46.546154 -118.540042 110 816ft 0kts
27-Mar-18 11:57 46.546154 -118.540042 110 816ft 0kts
27-Mar-18 11:58 46.546154 -118.540042 110 816ft 0kts
27-Mar-18 11:59 46.546154 -118.540042 110 816ft 0kts
27-Mar-18 12:00 46.546154 -118.540042 110 816ft 0kts
27-Mar-18 12:01 46.546154 -118.540042 110 816ft 0kts
27-Mar-18 12:02 46.546154 -118.540042 110 816ft 0kts
27-Mar-18 12:03 46.546154 -118.540042 110 816ft 0kts
27-Mar-18 12:04 46.546154 -118.540042 110 816ft 0kts
27-Mar-18 12:05 46.546154 -118.540042 110 816ft 0kts
27-Mar-18 12:06 46.546154 -118.540042 110 816ft 0kts
27-Mar-18 12:07 46.546154 -118.540042 110 816ft 0kts
27-Mar-18 12:08 46.546154 -118.540042 110 816ft 0kts
27-Mar-18 12:09 46.546154 -118.540042 110 816ft 0kts
27-Mar-18 12:10 46.546154 -118.540042 110 816ft 0kts
27-Mar-18 12:11 46.546154 -118.540042 110 816ft 0kts
27-Mar-18 12:12 46.546154 -118.540042 110 816ft 0kts
27-Mar-18 12:13 46.546154 -118.540042 110 816ft 0kts
27-Mar-18 12:14 46.546154 -118.540042 110 816ft 0kts
27-Mar-18 12:15 46.546154 -118.540042 110 816ft 0kts
27-Mar-18 12:16 46.546154 -118.540042 110 816ft 0kts
27-Mar-18 12:17 46.546154 -118.540042 110 816ft 0kts
27-Mar-18 12:18 46.546154 -118.540042 110 816ft 0kts
27-Mar-18 12:19 46.546154 -118.540042 110 816ft 0kts
27-Mar-18 12:20 46.546154 -118.540042 110 816ft 0kts
27-Mar-18 12:21 46.546154 -118.540042 110 816ft 0kts
27-Mar-18 12:22 46.546154 -118.540042 110 816ft 0kts
27-Mar-18 12:23 46.546154 -118.540042 110 816ft 0kts
27-Mar-18 12:24 46.546154 -118.540042 110 816ft 0kts
27-Mar-18 12:25 46.546154 -118.540042 110 816ft 0kts
27-Mar-18 12:26 46.546154 -118.540042 110 816ft 0kts
27-Mar-18 12:27 46.546154 -118.540042 110 816ft 0kts
27-Mar-18 12:28 46.546154 -118.540042 110 816ft 0kts
27-Mar-18 12:29 46.546154 -118.540042 110 816ft 0kts
27-Mar-18 12:30 46.546154 -118.540042 110 816ft 0kts
27-Mar-18 12:31 46.546154 -118.540042 110 816ft 0kts
27-Mar-18 12:32 46.546154 -118.540042 110 816ft 0kts
27-Mar-18 12:33 46.546154 -118.540041 110 816ft 0kts
27-Mar-18 12:34 46.548407 -118.537748 28 816ft 17kts
27-Mar-18 12:35 46.553546 -118.533662 24 816ft 22kts
27-Mar-18 12:36 46.543783 -118.541436 202 1523ft 108kts
27-Mar-18 12:37 46.549874 -118.494923 66 3047ft 174kts
27-Mar-18 12:38 46.565422 -118.425984 79 4019ft 182kts
27-Mar-18 12:39 46.576432 -118.352809 82 4697ft 193kts
27-Mar-18 12:40 46.586877 -118.278295 82 4691ft 193kts
27-Mar-18 12:41 46.597597 -118.201262 82 4696ft 196kts
27-Mar-18 12:42 46.608326 -118.122535 81 4637ft 201kts
27-Mar-18 12:43 46.619342 -118.043091 81 4642ft 200kts
27-Mar-18 12:44 46.630170 -117.963838 81 4644ft 199kts
27-Mar-18 12:45 46.641005 -117.883998 81 4648ft 201kts
27-Mar-18 12:46 46.651805 -117.804349 80 4636ft 200kts
27-Mar-18 12:47 46.662705 -117.724756 81 4635ft 200kts
27-Mar-18 12:48 46.673323 -117.645442 80 4636ft 200kts
27-Mar-18 12:49 46.683418 -117.569532 81 4638ft 200kts
27-Mar-18 12:50 46.693962 -117.489800 81 4640ft 201kts
27-Mar-18 12:51 46.704457 -117.409985 81 4637ft 200kts
27-Mar-18 12:52 46.714810 -117.330846 81 4650ft 200kts
27-Mar-18 12:53 46.725164 -117.251201 82 4634ft 200kts
27-Mar-18 12:54 46.735423 -117.171939 82 4641ft 200kts
27-Mar-18 12:55 46.742889 -117.094126 88 4050ft 175kts
27-Mar-18 12:56 46.752259 -117.080695 227 3094ft 70kts
27-Mar-18 12:57 46.745137 -117.104449 249 2546ft 46kts
27-Mar-18 12:58 46.745127 -117.108022 115 2546ft 0kts
27-Mar-18 12:59 46.745127 -117.108022 115 2546ft 0kts
27-Mar-18 13:00 46.745127 -117.108022 115 2546ft 0kts
27-Mar-18 13:01 46.745127 -117.108022 115 2546ft 0kts
27-Mar-18 13:02 46.745127 -117.108022 115 2546ft 0kts
27-Mar-18 13:03 46.745127 -117.108022 115 2546ft 0kts
27-Mar-18 13:04 46.745127 -117.108022 115 2546ft 0kts
27-Mar-18 13:05 46.745127 -117.108022 115 2546ft 0kts
27-Mar-18 13:06 48.103009 -116.138028 175 2111ft 0kts

Navigation Log

Ident Type
Flight plan parsing failed, navigation log unavailable